Portada
METAR-TAF:

METAR-TAF

Aeroports :

Tientsin, Xina

latitud: 39-11N, longitud: 117-21E, altitud: 3 m

Observació

L'informe es va fer fa 25 minuts, a les 12:00 UTC
Vent 2 kt del Oest
Temperatura 0°C
Humitat 74%
Pressió 1019 hPa
Visibilitat: 2000 m
boirina

METAR: ZBTJ 091200Z 27001MPS 2000 BR NSC 00/M04 Q1019 BECMG TL1330 1400 BR

Hora: 20:25 (12:25 UTC)

Pronòstic

L'informe es va fer fa 3 hores i 39 minuts, a les 08:46 UTC
Pronòstic vàlid del 09 a les 12 UTC al 10 a les 12 UTC
Vent 6 kt del Nord/Nord-Oest
Visibilitat: 1400 m
boirina
Evolucionant progressivament
l' 09 a les 16 UTC al 09 a les 17 UTC
Visibilitat: 0600 m
boira gebradora
Evolucionant progressivament
l' 10 a les 01 UTC al 10 a les 02 UTC
Visibilitat: 1500 m
boirina
Evolucionant progressivament
l' 10 a les 03 UTC al 10 a les 04 UTC
Visibilitat: 3000 m

TAF: ZBTJ 090846Z 0912/1012 33003MPS 1400 BR NSC TX07/1007Z TNM04/22Z BECMG 0916/0917 0600 FZFG BECMG 1001/1002 1500 BR BECMG 1003/1004 3000

Observacions i pronòstics meteorològics de més de 4000 aeroports (METAR i TAF).

Les estacions disponibles són els punts grocs i vermells al mapa.

Posi el ratolí al punt desitjat per veure el nom de l'estació.

Feu clic per veure les observacions i els pronòstics meteorològics.

Per canviar el mapa: feu clic els botons verds amb una creu de color negre per apropar; al botó verd amb un guió per allunyar la imatge; o en les fletxes verdes per a mapes adjacents.


METAR-TAF: